sensor_id;sensor_type;location;lat;lon;timestamp;pressure;altitude;pressure_sealevel;temperature;humidity
69850;BME280;57144;39.652;-75.770;2022-09-29T00:02:06;101486.82;;;14.63;73.79
69850;BME280;57144;39.652;-75.770;2022-09-29T00:04:37;101489.93;;;14.25;75.19
69850;BME280;57144;39.652;-75.770;2022-09-29T00:07:07;101495.07;;;14.40;74.92
69850;BME280;57144;39.652;-75.770;2022-09-29T00:09:38;101499.34;;;14.54;74.60
69850;BME280;57144;39.652;-75.770;2022-09-29T00:12:08;101500.06;;;14.22;75.59
69850;BME280;57144;39.652;-75.770;2022-09-29T00:14:39;101498.73;;;14.33;75.44
69850;BME280;57144;39.652;-75.770;2022-09-29T00:17:10;101505.28;;;14.00;77.47
69850;BME280;57144;39.652;-75.770;2022-09-29T00:19:40;101513.81;;;13.97;78.34
69850;BME280;57144;39.652;-75.770;2022-09-29T00:22:11;101517.73;;;13.84;78.87
69850;BME280;57144;39.652;-75.770;2022-09-29T00:24:41;101524.46;;;13.91;78.69
69850;BME280;57144;39.652;-75.770;2022-09-29T00:27:13;101522.88;;;14.12;77.82
69850;BME280;57144;39.652;-75.770;2022-09-29T00:29:42;101524.24;;;13.94;78.43
69850;BME280;57144;39.652;-75.770;2022-09-29T00:32:13;101527.02;;;13.86;78.69
69850;BME280;57144;39.652;-75.770;2022-09-29T00:34:43;101526.88;;;14.06;77.96
69850;BME280;57144;39.652;-75.770;2022-09-29T00:37:14;101528.18;;;13.89;78.73
69850;BME280;57144;39.652;-75.770;2022-09-29T00:39:45;101532.07;;;13.96;77.74
69850;BME280;57144;39.652;-75.770;2022-09-29T00:42:18;101538.87;;;13.73;78.61
69850;BME280;57144;39.652;-75.770;2022-09-29T00:44:56;101535.20;;;13.33;80.72
69850;BME280;57144;39.652;-75.770;2022-09-29T00:47:17;101535.50;;;13.48;80.57
69850;BME280;57144;39.652;-75.770;2022-09-29T00:49:51;101538.42;;;13.37;81.10
69850;BME280;57144;39.652;-75.770;2022-09-29T00:52:21;101542.13;;;13.23;81.84
69850;BME280;57144;39.652;-75.770;2022-09-29T00:54:50;101544.78;;;13.26;81.40
69850;BME280;57144;39.652;-75.770;2022-09-29T00:57:22;101541.21;;;13.03;82.38
69850;BME280;57144;39.652;-75.770;2022-09-29T00:59:51;101535.90;;;13.02;82.40
69850;BME280;57144;39.652;-75.770;2022-09-29T01:02:21;101541.87;;;13.10;82.08
69850;BME280;57144;39.652;-75.770;2022-09-29T01:04:52;101548.32;;;12.97;82.30
69850;BME280;57144;39.652;-75.770;2022-09-29T01:07:23;101547.35;;;12.98;82.43
69850;BME280;57144;39.652;-75.770;2022-09-29T01:09:53;101550.40;;;13.16;81.93
69850;BME280;57144;39.652;-75.770;2022-09-29T01:12:23;101550.26;;;12.84;83.21
69850;BME280;57144;39.652;-75.770;2022-09-29T01:14:53;101548.83;;;13.33;81.87
69850;BME280;57144;39.652;-75.770;2022-09-29T01:17:23;101550.54;;;13.36;81.76
69850;BME280;57144;39.652;-75.770;2022-09-29T01:20:02;101550.76;;;13.32;81.65
69850;BME280;57144;39.652;-75.770;2022-09-29T01:24:59;101559.91;;;12.92;83.45
69850;BME280;57144;39.652;-75.770;2022-09-29T01:27:32;101562.26;;;12.75;84.37
69850;BME280;57144;39.652;-75.770;2022-09-29T01:30:03;101569.17;;;12.93;83.84
69850;BME280;57144;39.652;-75.770;2022-09-29T01:32:33;101572.82;;;12.94;83.59
69850;BME280;57144;39.652;-75.770;2022-09-29T01:35:03;101570.27;;;12.74;84.62
69850;BME280;57144;39.652;-75.770;2022-09-29T01:37:43;101572.65;;;12.99;83.38
69850;BME280;57144;39.652;-75.770;2022-09-29T01:40:05;101571.37;;;12.87;83.72
69850;BME280;57144;39.652;-75.770;2022-09-29T01:42:33;101571.43;;;12.89;83.72
69850;BME280;57144;39.652;-75.770;2022-09-29T01:45:07;101576.74;;;12.85;83.92
69850;BME280;57144;39.652;-75.770;2022-09-29T01:47:34;101580.53;;;12.92;83.55
69850;BME280;57144;39.652;-75.770;2022-09-29T01:50:05;101574.01;;;12.71;84.42
69850;BME280;57144;39.652;-75.770;2022-09-29T01:52:33;101577.81;;;12.89;83.91
69850;BME280;57144;39.652;-75.770;2022-09-29T01:55:07;101585.21;;;12.90;83.75
69850;BME280;57144;39.652;-75.770;2022-09-29T01:57:36;101582.14;;;12.95;83.62
69850;BME280;57144;39.652;-75.770;2022-09-29T02:00:06;101576.58;;;12.73;84.34
69850;BME280;57144;39.652;-75.770;2022-09-29T02:02:37;101579.10;;;12.61;85.25
69850;BME280;57144;39.652;-75.770;2022-09-29T02:05:09;101582.32;;;12.57;85.09
69850;BME280;57144;39.652;-75.770;2022-09-29T02:07:37;101583.02;;;12.60;85.11
69850;BME280;57144;39.652;-75.770;2022-09-29T02:10:09;101590.83;;;12.44;85.61
69850;BME280;57144;39.652;-75.770;2022-09-29T02:12:37;101598.45;;;12.29;86.57
69850;BME280;57144;39.652;-75.770;2022-09-29T02:15:09;101601.64;;;12.57;85.50
69850;BME280;57144;39.652;-75.770;2022-09-29T02:17:40;101599.34;;;12.45;86.15
69850;BME280;57144;39.652;-75.770;2022-09-29T02:20:10;101601.26;;;12.69;85.14
69850;BME280;57144;39.652;-75.770;2022-09-29T02:22:39;101604.15;;;12.42;86.66
69850;BME280;57144;39.652;-75.770;2022-09-29T02:25:11;101604.21;;;12.20;87.83
69850;BME280;57144;39.652;-75.770;2022-09-29T02:27:40;101601.43;;;12.15;88.27
69850;BME280;57144;39.652;-75.770;2022-09-29T02:30:11;101605.07;;;12.18;88.47
69850;BME280;57144;39.652;-75.770;2022-09-29T02:32:41;101600.53;;;12.07;89.17
69850;BME280;57144;39.652;-75.770;2022-09-29T02:35:12;101602.67;;;12.12;89.03
69850;BME280;57144;39.652;-75.770;2022-09-29T02:37:52;101607.66;;;12.52;87.11
69850;BME280;57144;39.652;-75.770;2022-09-29T02:40:26;101609.89;;;12.59;87.03
69850;BME280;57144;39.652;-75.770;2022-09-29T02:42:52;101614.09;;;12.47;87.49
69850;BME280;57144;39.652;-75.770;2022-09-29T02:45:23;101618.71;;;12.64;86.87
69850;BME280;57144;39.652;-75.770;2022-09-29T02:47:52;101626.78;;;12.70;86.47
69850;BME280;57144;39.652;-75.770;2022-09-29T02:52:51;101628.93;;;12.15;89.53
69850;BME280;57144;39.652;-75.770;2022-09-29T02:55:18;101628.93;;;12.40;88.47
69850;BME280;57144;39.652;-75.770;2022-09-29T02:57:50;101627.63;;;12.39;88.90
69850;BME280;57144;39.652;-75.770;2022-09-29T03:00:18;101635.80;;;12.23;89.23
69850;BME280;57144;39.652;-75.770;2022-09-29T03:02:48;101635.22;;;12.46;88.64
69850;BME280;57144;39.652;-75.770;2022-09-29T03:05:20;101626.63;;;12.33;89.31
69850;BME280;57144;39.652;-75.770;2022-09-29T03:07:49;101634.67;;;12.30;89.91
69850;BME280;57144;39.652;-75.770;2022-09-29T03:10:19;101638.16;;;12.13;90.62
69850;BME280;57144;39.652;-75.770;2022-09-29T03:12:50;101635.56;;;12.09;90.95
69850;BME280;57144;39.652;-75.770;2022-09-29T03:15:21;101634.84;;;12.11;90.83
69850;BME280;57144;39.652;-75.770;2022-09-29T03:17:54;101639.72;;;12.28;90.14
69850;BME280;57144;39.652;-75.770;2022-09-29T03:20:22;101638.89;;;12.32;89.58
69850;BME280;57144;39.652;-75.770;2022-09-29T03:22:55;101643.91;;;12.31;89.96
69850;BME280;57144;39.652;-75.770;2022-09-29T03:25:23;101645.85;;;12.10;91.24
69850;BME280;57144;39.652;-75.770;2022-09-29T03:27:53;101644.47;;;12.17;90.82
69850;BME280;57144;39.652;-75.770;2022-09-29T03:30:24;101649.29;;;11.84;92.43
69850;BME280;57144;39.652;-75.770;2022-09-29T03:32:55;101656.52;;;12.22;90.81
69850;BME280;57144;39.652;-75.770;2022-09-29T03:35:25;101657.09;;;12.31;90.33
69850;BME280;57144;39.652;-75.770;2022-09-29T03:37:57;101657.24;;;11.92;92.15
69850;BME280;57144;39.652;-75.770;2022-09-29T03:40:27;101659.56;;;12.07;91.22
69850;BME280;57144;39.652;-75.770;2022-09-29T03:42:57;101663.73;;;12.14;91.22
69850;BME280;57144;39.652;-75.770;2022-09-29T03:45:27;101667.11;;;11.97;91.82
69850;BME280;57144;39.652;-75.770;2022-09-29T03:47:58;101663.20;;;12.15;91.23
69850;BME280;57144;39.652;-75.770;2022-09-29T03:50:29;101658.90;;;12.14;91.15
69850;BME280;57144;39.652;-75.770;2022-09-29T03:52:59;101657.42;;;11.99;92.30
69850;BME280;57144;39.652;-75.770;2022-09-29T03:55:30;101655.87;;;12.15;91.25
69850;BME280;57144;39.652;-75.770;2022-09-29T03:58:00;101655.84;;;12.03;91.75
69850;BME280;57144;39.652;-75.770;2022-09-29T04:00:31;101658.70;;;12.21;90.95
69850;BME280;57144;39.652;-75.770;2022-09-29T04:03:02;101658.39;;;12.15;91.18
69850;BME280;57144;39.652;-75.770;2022-09-29T04:05:32;101657.76;;;11.92;92.09
69850;BME280;57144;39.652;-75.770;2022-09-29T04:08:03;101656.04;;;12.14;91.18
69850;BME280;57144;39.652;-75.770;2022-09-29T04:10:33;101656.34;;;12.10;91.13
69850;BME280;57144;39.652;-75.770;2022-09-29T04:13:05;101657.47;;;12.02;91.34
69850;BME280;57144;39.652;-75.770;2022-09-29T04:15:34;101655.82;;;12.13;90.93
69850;BME280;57144;39.652;-75.770;2022-09-29T04:18:05;101652.92;;;11.58;93.36
69850;BME280;57144;39.652;-75.770;2022-09-29T04:20:37;101657.16;;;12.02;91.56
69850;BME280;57144;39.652;-75.770;2022-09-29T04:23:06;101664.04;;;11.37;94.12
69850;BME280;57144;39.652;-75.770;2022-09-29T04:25:37;101668.11;;;11.87;92.42
69850;BME280;57144;39.652;-75.770;2022-09-29T04:28:07;101667.35;;;12.16;90.84
69850;BME280;57144;39.652;-75.770;2022-09-29T04:30:38;101670.79;;;12.03;91.74
69850;BME280;57144;39.652;-75.770;2022-09-29T04:33:09;101675.00;;;12.00;91.68
69850;BME280;57144;39.652;-75.770;2022-09-29T04:35:39;101677.90;;;11.80;92.55
69850;BME280;57144;39.652;-75.770;2022-09-29T04:38:10;101674.75;;;12.16;91.06
69850;BME280;57144;39.652;-75.770;2022-09-29T04:40:41;101674.57;;;11.64;93.82
69850;BME280;57144;39.652;-75.770;2022-09-29T04:43:11;101673.91;;;11.75;93.10
69850;BME280;57144;39.652;-75.770;2022-09-29T04:45:41;101676.82;;;11.72;93.27
69850;BME280;57144;39.652;-75.770;2022-09-29T04:48:12;101680.09;;;11.92;92.61
69850;BME280;57144;39.652;-75.770;2022-09-29T04:50:43;101680.44;;;11.73;93.31
69850;BME280;57144;39.652;-75.770;2022-09-29T04:53:13;101678.62;;;11.84;92.85
69850;BME280;57144;39.652;-75.770;2022-09-29T04:55:43;101681.39;;;11.86;92.61
69850;BME280;57144;39.652;-75.770;2022-09-29T04:58:13;101684.16;;;11.74;93.03
69850;BME280;57144;39.652;-75.770;2022-09-29T05:00:44;101690.73;;;12.17;91.15
69850;BME280;57144;39.652;-75.770;2022-09-29T05:03:14;101691.77;;;11.67;93.56
69850;BME280;57144;39.652;-75.770;2022-09-29T05:05:45;101694.62;;;11.90;92.43
69850;BME280;57144;39.652;-75.770;2022-09-29T05:08:15;101693.25;;;11.81;92.96
69850;BME280;57144;39.652;-75.770;2022-09-29T05:10:46;101696.34;;;11.81;93.08
69850;BME280;57144;39.652;-75.770;2022-09-29T05:13:17;101702.27;;;11.83;92.93
69850;BME280;57144;39.652;-75.770;2022-09-29T05:15:47;101703.87;;;11.91;92.38
69850;BME280;57144;39.652;-75.770;2022-09-29T05:18:18;101707.76;;;11.40;95.07
69850;BME280;57144;39.652;-75.770;2022-09-29T05:20:48;101706.11;;;11.75;92.82
69850;BME280;57144;39.652;-75.770;2022-09-29T05:23:19;101709.42;;;11.80;93.05
69850;BME280;57144;39.652;-75.770;2022-09-29T05:25:49;101709.69;;;11.56;94.16
69850;BME280;57144;39.652;-75.770;2022-09-29T05:28:20;101716.87;;;10.50;98.52
69850;BME280;57144;39.652;-75.770;2022-09-29T05:30:50;101720.14;;;11.52;94.42
69850;BME280;57144;39.652;-75.770;2022-09-29T05:33:21;101722.52;;;11.76;93.18
69850;BME280;57144;39.652;-75.770;2022-09-29T05:35:51;101725.39;;;11.48;94.59
69850;BME280;57144;39.652;-75.770;2022-09-29T05:38:22;101727.39;;;11.16;95.79
69850;BME280;57144;39.652;-75.770;2022-09-29T05:40:52;101727.53;;;11.73;92.83
69850;BME280;57144;39.652;-75.770;2022-09-29T05:43:23;101729.44;;;11.23;94.88
69850;BME280;57144;39.652;-75.770;2022-09-29T05:45:58;101733.94;;;11.43;94.44
69850;BME280;57144;39.652;-75.770;2022-09-29T05:48:24;101733.27;;;11.20;95.41
69850;BME280;57144;39.652;-75.770;2022-09-29T05:50:55;101731.71;;;11.33;94.58
69850;BME280;57144;39.652;-75.770;2022-09-29T05:53:25;101730.14;;;10.77;97.38
69850;BME280;57144;39.652;-75.770;2022-09-29T05:55:55;101730.82;;;10.98;96.85
69850;BME280;57144;39.652;-75.770;2022-09-29T05:58:26;101734.00;;;11.39;94.34
69850;BME280;57144;39.652;-75.770;2022-09-29T06:00:56;101735.60;;;11.53;93.74
69850;BME280;57144;39.652;-75.770;2022-09-29T06:03:27;101733.30;;;11.28;94.13
69850;BME280;57144;39.652;-75.770;2022-09-29T06:05:57;101734.96;;;11.43;93.37
69850;BME280;57144;39.652;-75.770;2022-09-29T06:08:28;101738.01;;;11.15;93.29
69850;BME280;57144;39.652;-75.770;2022-09-29T06:11:03;101741.43;;;11.22;93.42
69850;BME280;57144;39.652;-75.770;2022-09-29T06:13:29;101740.07;;;10.97;93.37
69850;BME280;57144;39.652;-75.770;2022-09-29T06:16:00;101742.59;;;11.56;91.54
69850;BME280;57144;39.652;-75.770;2022-09-29T06:18:30;101743.08;;;11.38;92.46
69850;BME280;57144;39.652;-75.770;2022-09-29T06:21:02;101735.86;;;11.22;93.54
69850;BME280;57144;39.652;-75.770;2022-09-29T06:23:31;101733.57;;;10.88;93.98
69850;BME280;57144;39.652;-75.770;2022-09-29T06:26:05;101733.69;;;11.08;94.49
69850;BME280;57144;39.652;-75.770;2022-09-29T06:28:32;101743.51;;;10.98;93.71
69850;BME280;57144;39.652;-75.770;2022-09-29T06:31:04;101742.43;;;10.41;95.52
69850;BME280;57144;39.652;-75.770;2022-09-29T06:33:34;101741.50;;;10.97;93.85
69850;BME280;57144;39.652;-75.770;2022-09-29T06:36:10;101746.35;;;10.93;93.14
69850;BME280;57144;39.652;-75.770;2022-09-29T06:38:34;101749.28;;;10.81;94.16
69850;BME280;57144;39.652;-75.770;2022-09-29T06:41:05;101747.75;;;10.90;93.69
69850;BME280;57144;39.652;-75.770;2022-09-29T06:43:35;101745.81;;;10.98;92.56
69850;BME280;57144;39.652;-75.770;2022-09-29T06:46:06;101742.37;;;10.85;92.84
69850;BME280;57144;39.652;-75.770;2022-09-29T06:48:37;101746.55;;;11.05;91.82
69850;BME280;57144;39.652;-75.770;2022-09-29T06:51:08;101740.89;;;10.40;94.60
69850;BME280;57144;39.652;-75.770;2022-09-29T06:53:38;101749.67;;;10.83;92.80
69850;BME280;57144;39.652;-75.770;2022-09-29T06:56:08;101742.37;;;10.97;92.46
69850;BME280;57144;39.652;-75.770;2022-09-29T06:58:39;101749.93;;;10.58;94.07
69850;BME280;57144;39.652;-75.770;2022-09-29T07:01:09;101752.00;;;10.80;93.16
69850;BME280;57144;39.652;-75.770;2022-09-29T07:03:40;101756.30;;;10.64;93.86
69850;BME280;57144;39.652;-75.770;2022-09-29T07:06:11;101756.05;;;10.06;95.92
69850;BME280;57144;39.652;-75.770;2022-09-29T07:08:41;101762.26;;;10.82;92.23
69850;BME280;57144;39.652;-75.770;2022-09-29T07:11:13;101762.25;;;10.69;92.44
69850;BME280;57144;39.652;-75.770;2022-09-29T07:13:42;101763.60;;;10.96;91.30
69850;BME280;57144;39.652;-75.770;2022-09-29T07:16:13;101760.14;;;10.99;91.43
69850;BME280;57144;39.652;-75.770;2022-09-29T07:18:44;101760.65;;;10.76;92.50
69850;BME280;57144;39.652;-75.770;2022-09-29T07:21:15;101752.43;;;10.41;93.12
69850;BME280;57144;39.652;-75.770;2022-09-29T07:23:46;101756.21;;;10.36;93.96
69850;BME280;57144;39.652;-75.770;2022-09-29T07:26:16;101762.59;;;10.13;95.22
69850;BME280;57144;39.652;-75.770;2022-09-29T07:28:46;101754.32;;;10.33;93.55
69850;BME280;57144;39.652;-75.770;2022-09-29T07:31:19;101761.05;;;10.24;93.69
69850;BME280;57144;39.652;-75.770;2022-09-29T07:33:49;101760.32;;;10.21;94.56
69850;BME280;57144;39.652;-75.770;2022-09-29T07:36:19;101770.93;;;9.86;95.40
69850;BME280;57144;39.652;-75.770;2022-09-29T07:38:50;101772.17;;;10.16;94.47
69850;BME280;57144;39.652;-75.770;2022-09-29T07:41:21;101773.14;;;10.16;93.98
69850;BME280;57144;39.652;-75.770;2022-09-29T07:43:50;101777.05;;;10.23;93.18
69850;BME280;57144;39.652;-75.770;2022-09-29T07:46:20;101777.56;;;10.38;92.54
69850;BME280;57144;39.652;-75.770;2022-09-29T07:48:51;101771.95;;;10.42;91.73
69850;BME280;57144;39.652;-75.770;2022-09-29T07:51:22;101770.61;;;10.53;91.47
69850;BME280;57144;39.652;-75.770;2022-09-29T07:53:52;101770.52;;;10.31;92.47
69850;BME280;57144;39.652;-75.770;2022-09-29T07:56:23;101774.87;;;10.33;91.75
69850;BME280;57144;39.652;-75.770;2022-09-29T07:58:54;101774.58;;;10.34;92.43
69850;BME280;57144;39.652;-75.770;2022-09-29T08:01:24;101772.81;;;9.98;93.03
69850;BME280;57144;39.652;-75.770;2022-09-29T08:03:55;101771.62;;;10.23;92.70
69850;BME280;57144;39.652;-75.770;2022-09-29T08:06:26;101775.74;;;10.11;92.87
69850;BME280;57144;39.652;-75.770;2022-09-29T08:08:55;101773.84;;;10.32;90.99
69850;BME280;57144;39.652;-75.770;2022-09-29T08:11:26;101776.93;;;10.19;91.87
69850;BME280;57144;39.652;-75.770;2022-09-29T08:13:57;101778.25;;;10.31;91.43
69850;BME280;57144;39.652;-75.770;2022-09-29T08:16:28;101777.59;;;9.86;93.44
69850;BME280;57144;39.652;-75.770;2022-09-29T08:18:58;101784.84;;;10.15;91.98
69850;BME280;57144;39.652;-75.770;2022-09-29T08:21:30;101781.74;;;9.95;92.65
69850;BME280;57144;39.652;-75.770;2022-09-29T08:23:59;101792.71;;;9.49;94.59
69850;BME280;57144;39.652;-75.770;2022-09-29T08:26:32;101784.64;;;9.64;94.12
69850;BME280;57144;39.652;-75.770;2022-09-29T08:29:00;101788.98;;;9.65;94.65
69850;BME280;57144;39.652;-75.770;2022-09-29T08:31:31;101787.91;;;9.52;94.98
69850;BME280;57144;39.652;-75.770;2022-09-29T08:34:02;101788.08;;;9.65;94.39
69850;BME280;57144;39.652;-75.770;2022-09-29T08:36:32;101787.45;;;9.78;93.88
69850;BME280;57144;39.652;-75.770;2022-09-29T08:39:04;101786.26;;;10.00;92.43
69850;BME280;57144;39.652;-75.770;2022-09-29T08:41:44;101782.77;;;10.14;91.95
69850;BME280;57144;39.652;-75.770;2022-09-29T08:44:09;101787.86;;;9.61;94.10
69850;BME280;57144;39.652;-75.770;2022-09-29T08:46:38;101794.09;;;9.85;93.06
69850;BME280;57144;39.652;-75.770;2022-09-29T08:49:09;101796.87;;;9.88;92.82
69850;BME280;57144;39.652;-75.770;2022-09-29T08:51:39;101797.96;;;9.92;92.47
69850;BME280;57144;39.652;-75.770;2022-09-29T08:54:13;101797.99;;;9.89;92.38
69850;BME280;57144;39.652;-75.770;2022-09-29T08:56:38;101801.61;;;9.88;92.69
69850;BME280;57144;39.652;-75.770;2022-09-29T08:59:08;101803.74;;;9.80;92.39
69850;BME280;57144;39.652;-75.770;2022-09-29T09:01:48;101802.09;;;9.71;92.66
69850;BME280;57144;39.652;-75.770;2022-09-29T09:04:27;101803.48;;;9.76;93.39
69850;BME280;57144;39.652;-75.770;2022-09-29T09:06:50;101799.81;;;9.07;96.70
69850;BME280;57144;39.652;-75.770;2022-09-29T09:09:22;101794.28;;;9.04;96.32
69850;BME280;57144;39.652;-75.770;2022-09-29T09:11:54;101796.84;;;9.08;96.64
69850;BME280;57144;39.652;-75.770;2022-09-29T09:14:22;101798.07;;;9.13;96.02
69850;BME280;57144;39.652;-75.770;2022-09-29T09:16:49;101802.86;;;9.75;93.11
69850;BME280;57144;39.652;-75.770;2022-09-29T09:19:23;101810.81;;;9.40;94.91
69850;BME280;57144;39.652;-75.770;2022-09-29T09:21:48;101819.10;;;9.74;92.73
69850;BME280;57144;39.652;-75.770;2022-09-29T09:24:20;101813.40;;;8.81;97.21
69850;BME280;57144;39.652;-75.770;2022-09-29T09:26:46;101816.41;;;9.71;93.03
69850;BME280;57144;39.652;-75.770;2022-09-29T09:29:21;101820.97;;;8.82;96.11
69850;BME280;57144;39.652;-75.770;2022-09-29T09:31:49;101826.85;;;9.23;94.83
69850;BME280;57144;39.652;-75.770;2022-09-29T09:34:21;101839.16;;;9.20;94.31
69850;BME280;57144;39.652;-75.770;2022-09-29T09:36:49;101840.51;;;9.54;93.28
69850;BME280;57144;39.652;-75.770;2022-09-29T09:39:21;101841.35;;;9.30;93.86
69850;BME280;57144;39.652;-75.770;2022-09-29T09:41:50;101845.14;;;9.49;93.05
69850;BME280;57144;39.652;-75.770;2022-09-29T09:44:23;101851.36;;;9.45;93.92
69850;BME280;57144;39.652;-75.770;2022-09-29T09:46:51;101849.02;;;9.39;93.27
69850;BME280;57144;39.652;-75.770;2022-09-29T09:49:24;101851.32;;;9.61;92.55
69850;BME280;57144;39.652;-75.770;2022-09-29T09:51:56;101850.60;;;9.26;93.48
69850;BME280;57144;39.652;-75.770;2022-09-29T09:54:27;101851.98;;;9.69;91.86
69850;BME280;57144;39.652;-75.770;2022-09-29T09:57:08;101858.40;;;9.64;92.05
69850;BME280;57144;39.652;-75.770;2022-09-29T09:59:31;101865.15;;;9.21;93.76
69850;BME280;57144;39.652;-75.770;2022-09-29T10:01:53;101868.44;;;9.37;93.73
69850;BME280;57144;39.652;-75.770;2022-09-29T10:04:24;101865.47;;;9.05;95.35
69850;BME280;57144;39.652;-75.770;2022-09-29T10:06:55;101862.68;;;9.64;92.38
69850;BME280;57144;39.652;-75.770;2022-09-29T10:09:25;101869.71;;;9.36;93.10
69850;BME280;57144;39.652;-75.770;2022-09-29T10:11:55;101873.33;;;9.60;92.71
69850;BME280;57144;39.652;-75.770;2022-09-29T10:14:27;101866.25;;;9.06;95.24
69850;BME280;57144;39.652;-75.770;2022-09-29T10:16:59;101871.39;;;9.17;94.53
69850;BME280;57144;39.652;-75.770;2022-09-29T10:22:11;101880.00;;;9.23;94.32
69850;BME280;57144;39.652;-75.770;2022-09-29T10:24:29;101879.95;;;9.24;94.24
69850;BME280;57144;39.652;-75.770;2022-09-29T10:27:00;101876.60;;;9.06;94.66
69850;BME280;57144;39.652;-75.770;2022-09-29T10:29:36;101871.85;;;9.25;93.83
69850;BME280;57144;39.652;-75.770;2022-09-29T10:32:04;101870.07;;;9.15;94.13
69850;BME280;57144;39.652;-75.770;2022-09-29T10:34:32;101870.23;;;9.21;94.00
69850;BME280;57144;39.652;-75.770;2022-09-29T10:37:03;101865.76;;;9.25;93.26
69850;BME280;57144;39.652;-75.770;2022-09-29T10:39:38;101858.73;;;8.93;94.85
69850;BME280;57144;39.652;-75.770;2022-09-29T10:42:03;101854.52;;;8.82;95.15
69850;BME280;57144;39.652;-75.770;2022-09-29T10:44:33;101856.97;;;9.11;93.45
69850;BME280;57144;39.652;-75.770;2022-09-29T10:47:10;101862.30;;;8.55;95.66
69850;BME280;57144;39.652;-75.770;2022-09-29T10:49:34;101860.38;;;8.78;94.76
69850;BME280;57144;39.652;-75.770;2022-09-29T10:54:38;101854.94;;;9.05;93.78
69850;BME280;57144;39.652;-75.770;2022-09-29T10:57:12;101853.34;;;8.82;93.74
69850;BME280;57144;39.652;-75.770;2022-09-29T10:59:45;101857.39;;;8.53;95.52
69850;BME280;57144;39.652;-75.770;2022-09-29T11:02:15;101860.41;;;8.82;94.48
69850;BME280;57144;39.652;-75.770;2022-09-29T11:04:38;101868.26;;;8.70;94.90
69850;BME280;57144;39.652;-75.770;2022-09-29T11:07:11;101869.13;;;9.02;93.15
69850;BME280;57144;39.652;-75.770;2022-09-29T11:09:40;101872.58;;;9.14;92.45
69850;BME280;57144;39.652;-75.770;2022-09-29T11:14:41;101879.38;;;8.74;93.79
69850;BME280;57144;39.652;-75.770;2022-09-29T11:17:20;101885.82;;;8.60;94.20
69850;BME280;57144;39.652;-75.770;2022-09-29T11:19:42;101882.45;;;9.08;93.26
69850;BME280;57144;39.652;-75.770;2022-09-29T11:24:52;101890.40;;;8.65;94.64
69850;BME280;57144;39.652;-75.770;2022-09-29T11:27:23;101893.20;;;8.89;92.87
69850;BME280;57144;39.652;-75.770;2022-09-29T11:29:48;101903.47;;;8.82;93.58
69850;BME280;57144;39.652;-75.770;2022-09-29T11:32:27;101911.35;;;8.69;94.31
69850;BME280;57144;39.652;-75.770;2022-09-29T11:34:58;101912.70;;;8.69;94.60
69850;BME280;57144;39.652;-75.770;2022-09-29T11:37:27;101910.50;;;9.06;92.46
69850;BME280;57144;39.652;-75.770;2022-09-29T11:39:51;101915.63;;;9.24;91.91
69850;BME280;57144;39.652;-75.770;2022-09-29T11:42:30;101916.78;;;8.96;92.96
69850;BME280;57144;39.652;-75.770;2022-09-29T11:44:57;101920.06;;;9.27;91.94
69850;BME280;57144;39.652;-75.770;2022-09-29T11:50:02;101932.90;;;9.22;92.71
69850;BME280;57144;39.652;-75.770;2022-09-29T11:55:06;101934.13;;;8.85;94.46
69850;BME280;57144;39.652;-75.770;2022-09-29T11:57:32;101934.74;;;9.33;92.29
69850;BME280;57144;39.652;-75.770;2022-09-29T12:00:02;101939.10;;;9.37;91.65
69850;BME280;57144;39.652;-75.770;2022-09-29T12:04:57;101942.33;;;8.72;94.43
69850;BME280;57144;39.652;-75.770;2022-09-29T12:07:33;101943.08;;;9.41;92.02
69850;BME280;57144;39.652;-75.770;2022-09-29T12:10:05;101946.76;;;9.09;93.03
69850;BME280;57144;39.652;-75.770;2022-09-29T12:12:28;101948.76;;;9.33;92.81
69850;BME280;57144;39.652;-75.770;2022-09-29T12:15:06;101952.21;;;9.54;90.64
69850;BME280;57144;39.652;-75.770;2022-09-29T12:17:28;101952.52;;;9.61;90.67
69850;BME280;57144;39.652;-75.770;2022-09-29T12:20:03;101954.99;;;9.39;91.19
69850;BME280;57144;39.652;-75.770;2022-09-29T12:22:28;101962.24;;;8.37;96.63
69850;BME280;57144;39.652;-75.770;2022-09-29T12:25:00;101957.81;;;9.77;90.55
69850;BME280;57144;39.652;-75.770;2022-09-29T12:27:34;101959.67;;;10.15;89.08
69850;BME280;57144;39.652;-75.770;2022-09-29T12:30:04;101959.98;;;10.10;88.61
69850;BME280;57144;39.652;-75.770;2022-09-29T12:32:34;101966.23;;;9.58;89.94
69850;BME280;57144;39.652;-75.770;2022-09-29T12:35:05;101968.55;;;9.96;89.19
69850;BME280;57144;39.652;-75.770;2022-09-29T12:37:36;101971.14;;;9.95;89.98
69850;BME280;57144;39.652;-75.770;2022-09-29T12:40:07;101967.82;;;10.29;87.19
69850;BME280;57144;39.652;-75.770;2022-09-29T12:42:45;101961.16;;;10.17;88.19
69850;BME280;57144;39.652;-75.770;2022-09-29T12:45:10;101968.88;;;9.47;90.93
69850;BME280;57144;39.652;-75.770;2022-09-29T12:47:46;101966.03;;;10.41;87.25
69850;BME280;57144;39.652;-75.770;2022-09-29T12:50:09;101968.82;;;10.25;87.47
69850;BME280;57144;39.652;-75.770;2022-09-29T12:52:40;101976.11;;;10.20;87.80
69850;BME280;57144;39.652;-75.770;2022-09-29T12:55:12;101977.25;;;9.82;88.27
69850;BME280;57144;39.652;-75.770;2022-09-29T12:57:38;101981.69;;;10.12;88.47
69850;BME280;57144;39.652;-75.770;2022-09-29T13:00:11;101980.91;;;9.60;90.01
69850;BME280;57144;39.652;-75.770;2022-09-29T13:05:22;101982.85;;;10.62;85.80
69850;BME280;57144;39.652;-75.770;2022-09-29T13:10:20;101991.76;;;10.16;86.48
69850;BME280;57144;39.652;-75.770;2022-09-29T13:12:55;101987.13;;;10.73;85.91
69850;BME280;57144;39.652;-75.770;2022-09-29T13:15:19;101997.24;;;10.84;83.25
69850;BME280;57144;39.652;-75.770;2022-09-29T13:17:54;101996.80;;;9.82;88.30